createdAt,value
2022-08-05T04:07:33.057Z,18.67
2022-08-05T04:10:03.002Z,18.63
2022-08-05T04:12:31.557Z,18.70
2022-08-05T04:15:00.663Z,18.66
2022-08-05T04:17:55.395Z,18.56
2022-08-05T04:20:21.025Z,18.65
2022-08-05T04:22:52.413Z,18.57
2022-08-05T04:25:38.495Z,18.62
2022-08-05T04:28:13.833Z,18.85
2022-08-05T04:30:42.971Z,19.00
2022-08-05T04:33:10.757Z,19.06
2022-08-05T04:36:16.764Z,19.06
2022-08-05T04:38:40.013Z,19.15
2022-08-05T04:41:09.540Z,19.32
2022-08-05T04:43:40.500Z,19.34
2022-08-05T04:46:14.572Z,19.37
2022-08-05T04:48:58.726Z,19.47
2022-08-05T04:51:30.539Z,19.46
2022-08-05T04:54:01.484Z,19.47
2022-08-05T04:56:34.568Z,19.58
2022-08-05T04:59:21.544Z,19.58
2022-08-05T05:02:05.792Z,19.70
2022-08-05T05:04:43.762Z,19.75
2022-08-05T05:07:12.243Z,19.84
2022-08-05T05:10:10.278Z,19.95
2022-08-05T05:12:38.393Z,20.04
2022-08-05T05:15:10.620Z,20.13
2022-08-05T05:17:56.657Z,20.22
2022-08-05T05:20:28.495Z,20.37
2022-08-05T05:22:56.924Z,20.39
2022-08-05T05:25:32.807Z,20.56
2022-08-05T05:28:08.813Z,20.66
2022-08-05T05:35:03.110Z,21.09
2022-08-05T05:38:00.321Z,21.17
2022-08-05T05:40:20.269Z,21.38
2022-08-05T05:42:49.695Z,21.45
2022-08-05T05:46:13.734Z,21.64
2022-08-05T05:48:44.524Z,21.77
2022-08-05T05:51:15.610Z,21.94
2022-08-05T05:53:54.615Z,22.23
2022-08-05T05:56:31.793Z,22.39
2022-08-05T05:59:05.086Z,22.49
2022-08-05T06:01:37.108Z,22.66
2022-08-05T06:04:07.945Z,22.75
2022-08-05T06:06:36.287Z,22.86
2022-08-05T06:09:05.133Z,22.71
2022-08-05T06:11:33.426Z,22.74
2022-08-05T06:14:02.733Z,22.70
2022-08-05T06:16:36.776Z,22.74
2022-08-05T06:19:07.417Z,22.77
2022-08-05T06:21:38.783Z,22.95
2022-08-05T06:24:12.193Z,23.18
2022-08-05T06:26:51.624Z,23.29
2022-08-05T06:29:26.440Z,23.33
2022-08-05T06:32:21.239Z,23.45
2022-08-05T06:34:58.214Z,23.55
2022-08-05T06:37:56.526Z,23.59
2022-08-05T06:40:20.919Z,23.64
2022-08-05T06:42:51.904Z,23.69
2022-08-05T06:46:04.208Z,23.81
2022-08-05T06:48:47.162Z,23.93
2022-08-05T06:50:58.213Z,24.06
2022-08-05T06:53:29.145Z,24.28
2022-08-05T06:55:58.239Z,24.47
2022-08-05T06:58:35.247Z,24.79
2022-08-05T07:01:08.103Z,24.77
2022-08-05T07:03:41.379Z,24.74
2022-08-05T07:06:14.294Z,24.70
2022-08-05T07:08:47.772Z,24.67
2022-08-05T07:11:22.468Z,24.76
2022-08-05T07:14:29.294Z,24.72
2022-08-05T07:18:01.836Z,24.61
2022-08-05T07:22:42.348Z,24.54
2022-08-05T07:25:55.516Z,24.55
2022-08-05T07:28:07.260Z,24.51
2022-08-05T07:30:40.067Z,24.62
2022-08-05T07:33:15.981Z,24.59
2022-08-05T07:36:01.994Z,24.45
2022-08-05T07:38:43.694Z,24.70
2022-08-05T07:42:07.744Z,24.77
2022-08-05T07:44:14.391Z,24.84
2022-08-05T07:46:48.416Z,24.98
2022-08-05T07:49:21.119Z,25.15
2022-08-05T07:51:54.038Z,25.26
2022-08-05T07:54:31.082Z,25.35
2022-08-05T07:57:17.814Z,25.42
2022-08-05T07:59:49.595Z,25.50
2022-08-05T08:02:18.252Z,25.55
2022-08-05T08:04:49.407Z,25.68
2022-08-05T08:07:18.285Z,25.72
2022-08-05T08:09:52.357Z,25.67
2022-08-05T08:12:35.158Z,25.65
2022-08-05T08:15:13.830Z,25.59
2022-08-05T08:17:49.718Z,25.65
2022-08-05T08:20:43.507Z,25.64
2022-08-05T08:23:59.828Z,25.75
2022-08-05T08:26:04.714Z,25.71
2022-08-05T08:28:36.793Z,25.73
2022-08-05T08:31:20.391Z,25.80
2022-08-05T08:33:51.634Z,25.53
2022-08-05T08:36:37.645Z,25.53
2022-08-05T08:39:15.443Z,25.43
2022-08-05T08:41:52.459Z,25.45
2022-08-05T08:45:18.772Z,25.47
2022-08-05T08:48:05.702Z,25.45
2022-08-05T08:50:30.651Z,25.29
2022-08-05T08:53:07.920Z,25.39
2022-08-05T08:56:03.838Z,25.22
2022-08-05T08:58:36.956Z,25.15
2022-08-05T09:01:07.436Z,25.12
2022-08-05T09:03:45.414Z,25.08
2022-08-05T09:06:17.234Z,25.29
2022-08-05T09:08:49.302Z,25.40
2022-08-05T09:11:17.133Z,25.38
2022-08-05T09:14:54.359Z,25.45
2022-08-05T09:16:52.612Z,25.51
2022-08-05T09:19:20.438Z,25.76
2022-08-05T09:22:22.849Z,25.79
2022-08-05T09:24:58.371Z,25.71
2022-08-05T09:28:03.961Z,25.73
2022-08-05T09:30:23.245Z,25.90
